createdAt,value
2022-11-28T00:03:07.573Z,6.57
2022-11-28T00:08:09.632Z,6.58
2022-11-28T00:13:11.467Z,6.59
2022-11-28T00:18:13.118Z,6.59
2022-11-28T00:23:14.665Z,6.59
2022-11-28T00:28:16.258Z,6.56
2022-11-28T00:33:17.888Z,6.57
2022-11-28T00:38:19.469Z,6.54
2022-11-28T00:43:21.057Z,6.53
2022-11-28T00:48:23.306Z,6.53
2022-11-28T00:53:24.951Z,6.53
2022-11-28T00:58:26.555Z,6.52
2022-11-28T01:03:28.156Z,6.48
2022-11-28T01:08:30.211Z,6.45
2022-11-28T01:13:31.860Z,6.43
2022-11-28T01:18:33.442Z,6.43
2022-11-28T01:23:35.374Z,6.42
2022-11-28T01:28:36.959Z,6.38
2022-11-28T01:33:38.524Z,6.39
2022-11-28T01:38:41.221Z,6.39
2022-11-28T01:44:01.550Z,6.38
2022-11-28T01:49:13.316Z,6.38
2022-11-28T01:54:16.561Z,6.36
2022-11-28T01:59:20.476Z,6.37
2022-11-28T02:04:25.770Z,6.37
2022-11-28T02:09:27.368Z,6.37
2022-11-28T02:15:03.138Z,6.38
2022-11-28T02:20:38.082Z,6.34
2022-11-28T02:26:15.367Z,6.32
2022-11-28T02:31:36.178Z,6.33
2022-11-28T02:37:03.478Z,6.33
2022-11-28T02:42:15.166Z,6.33
2022-11-28T02:47:32.125Z,6.33
2022-11-28T02:52:39.249Z,6.35
2022-11-28T02:57:53.502Z,6.36
2022-11-28T03:03:25.485Z,6.37
2022-11-28T03:08:42.553Z,6.37
2022-11-28T03:13:59.673Z,6.38
2022-11-28T03:19:20.291Z,6.38
2022-11-28T03:24:24.991Z,6.37
2022-11-28T03:29:41.792Z,6.38
2022-11-28T03:34:47.602Z,6.37
2022-11-28T03:39:54.148Z,6.34
2022-11-28T03:45:05.923Z,6.32
2022-11-28T03:50:16.195Z,6.32
2022-11-28T03:55:24.817Z,6.33
2022-11-28T04:00:27.110Z,6.33
2022-11-28T04:05:49.445Z,6.32
2022-11-28T04:10:59.739Z,6.34
2022-11-28T04:16:11.580Z,6.35
2022-11-28T04:21:23.300Z,6.35
2022-11-28T04:26:32.207Z,6.33
2022-11-28T04:31:35.664Z,6.32
2022-11-28T04:36:41.061Z,6.32
2022-11-28T04:41:50.867Z,6.33
2022-11-28T04:46:55.781Z,6.31
2022-11-28T04:52:10.020Z,6.30
2022-11-28T04:57:21.704Z,6.30
2022-11-28T05:02:24.960Z,6.29
2022-11-28T05:07:26.674Z,6.27
2022-11-28T05:12:28.261Z,6.27
2022-11-28T05:17:30.177Z,6.25
2022-11-28T05:22:31.691Z,6.21
2022-11-28T05:27:33.300Z,6.21
2022-11-28T05:32:36.272Z,6.21
2022-11-28T05:37:38.159Z,6.20
2022-11-28T05:42:39.703Z,6.20
2022-11-28T05:47:41.301Z,6.20
2022-11-28T05:52:42.843Z,6.20
2022-11-28T05:57:44.361Z,6.23
2022-11-28T06:02:45.895Z,6.24
2022-11-28T06:07:47.534Z,6.22
2022-11-28T06:12:49.593Z,6.23
2022-11-28T06:17:51.130Z,6.25
2022-11-28T06:22:52.760Z,6.25
2022-11-28T06:27:54.305Z,6.25
2022-11-28T06:32:55.866Z,6.25
2022-11-28T06:37:57.542Z,6.25
2022-11-28T06:42:59.054Z,6.23
2022-11-28T06:48:01.479Z,6.21
2022-11-28T06:53:03.010Z,6.20
2022-11-28T06:58:04.563Z,6.18
2022-11-28T07:03:06.083Z,6.20
2022-11-28T07:08:07.723Z,6.22
2022-11-28T07:13:09.286Z,6.21
2022-11-28T07:18:10.793Z,6.23
2022-11-28T07:23:12.366Z,6.26
2022-11-28T07:28:13.903Z,6.25
2022-11-28T07:33:15.781Z,6.26
2022-11-28T07:38:17.315Z,6.25
2022-11-28T07:43:18.818Z,6.26
2022-11-28T07:48:20.378Z,6.31
2022-11-28T07:53:22.176Z,6.27
2022-11-28T07:58:23.819Z,6.27
2022-11-28T08:03:25.786Z,6.29
2022-11-28T08:08:31.117Z,6.32
2022-11-28T08:13:38.787Z,6.26
2022-11-28T08:18:41.607Z,6.22
2022-11-28T08:23:47.954Z,6.15
2022-11-28T08:40:25.994Z,6.20
2022-11-28T08:45:27.539Z,6.25
2022-11-28T08:50:29.198Z,6.29
2022-11-28T08:55:41.766Z,6.34
2022-11-28T09:01:25.907Z,6.37
2022-11-28T09:06:50.716Z,6.42
2022-11-28T09:11:53.406Z,6.46
2022-11-28T09:16:55.139Z,6.48
2022-11-28T09:21:58.089Z,6.55
2022-11-28T09:26:59.978Z,6.59
2022-11-28T09:32:01.576Z,6.65
2022-11-28T09:37:05.015Z,6.71
2022-11-28T09:42:17.578Z,6.78
2022-11-28T09:47:26.361Z,6.84
2022-11-28T09:52:45.810Z,6.87
2022-11-28T09:57:49.733Z,6.92
2022-11-28T10:03:11.921Z,6.97
2022-11-28T10:08:28.787Z,7.03
2022-11-28T10:14:08.949Z,7.09
2022-11-28T10:19:31.692Z,7.12
2022-11-28T10:24:48.361Z,7.19
2022-11-28T10:30:04.614Z,7.24
2022-11-28T10:35:13.784Z,7.31
2022-11-28T10:40:34.191Z,7.37
2022-11-28T10:46:04.211Z,7.40
2022-11-28T10:51:38.389Z,7.44
2022-11-28T10:56:45.955Z,7.43
2022-11-28T11:01:50.439Z,7.47
2022-11-28T11:07:16.428Z,7.50
2022-11-28T11:12:27.419Z,7.55
2022-11-28T11:17:36.581Z,7.59
2022-11-28T11:22:38.893Z,7.61
2022-11-28T11:27:49.850Z,7.65
2022-11-28T11:32:51.945Z,7.68
2022-11-28T11:37:55.511Z,7.71
2022-11-28T11:42:59.709Z,7.73
2022-11-28T11:48:03.890Z,7.79
2022-11-28T11:53:15.312Z,7.80
2022-11-28T11:58:25.510Z,7.82
2022-11-28T12:03:42.023Z,7.87
2022-11-28T12:08:51.071Z,7.89
2022-11-28T12:13:53.360Z,7.92
2022-11-28T12:18:57.983Z,7.96
2022-11-28T12:24:13.941Z,7.97
2022-11-28T12:29:40.274Z,8.00
2022-11-28T12:35:09.233Z,8.03
2022-11-28T12:40:38.216Z,8.06
2022-11-28T12:46:15.197Z,8.06
2022-11-28T12:51:49.321Z,8.04
2022-11-28T12:57:11.311Z,8.07
2022-11-28T13:02:55.785Z,8.07
2022-11-28T13:08:03.538Z,8.09
2022-11-28T13:13:17.851Z,8.11
2022-11-28T13:18:40.596Z,8.11
2022-11-28T13:23:56.201Z,8.08
2022-11-28T13:29:19.456Z,8.08
2022-11-28T13:34:21.892Z,8.08
2022-11-28T13:39:33.402Z,8.09
2022-11-28T13:44:50.076Z,8.09
2022-11-28T13:49:51.649Z,8.08
2022-11-28T13:54:56.416Z,8.07
2022-11-28T14:00:20.969Z,8.03
2022-11-28T14:05:38.023Z,8.00
2022-11-28T14:11:05.969Z,7.98
2022-11-28T14:16:17.830Z,7.97
2022-11-28T14:21:55.866Z,7.95
2022-11-28T14:27:00.869Z,7.93
2022-11-28T14:37:29.191Z,7.90
2022-11-28T14:48:16.982Z,7.85
2022-11-28T14:53:34.363Z,7.84
2022-11-28T14:58:36.159Z,7.79
2022-11-28T15:03:56.988Z,7.77
2022-11-28T15:09:14.201Z,7.75
2022-11-28T15:14:23.460Z,7.73
2022-11-28T15:19:30.887Z,7.70
2022-11-28T15:24:38.153Z,7.69
2022-11-28T15:29:39.705Z,7.67
2022-11-28T15:34:41.545Z,7.66
2022-11-28T15:39:46.766Z,7.64
2022-11-28T15:44:56.306Z,7.60
2022-11-28T15:50:11.456Z,7.59
2022-11-28T15:55:17.099Z,7.60
2022-11-28T16:00:21.859Z,7.59
2022-11-28T16:05:23.710Z,7.58
2022-11-28T16:10:31.863Z,7.56
2022-11-28T16:15:33.487Z,7.55
2022-11-28T16:20:37.078Z,7.53
2022-11-28T16:25:38.886Z,7.51
2022-11-28T16:30:48.056Z,7.49
2022-11-28T16:35:49.891Z,7.48
2022-11-28T16:40:59.001Z,7.48
2022-11-28T16:46:03.514Z,7.49
2022-11-28T16:51:11.106Z,7.50
2022-11-28T16:56:26.088Z,7.50
2022-11-28T17:01:29.194Z,7.47
2022-11-28T17:06:39.375Z,7.45
2022-11-28T17:11:44.829Z,7.42
2022-11-28T17:16:46.597Z,7.40
2022-11-28T17:21:51.734Z,7.38
2022-11-28T17:26:54.851Z,7.38
2022-11-28T17:31:58.821Z,7.38
2022-11-28T17:37:01.999Z,7.38
2022-11-28T17:42:04.562Z,7.37
2022-11-28T17:47:06.107Z,7.37
2022-11-28T17:52:09.456Z,7.37
2022-11-28T17:57:11.325Z,7.36
2022-11-28T18:02:13.426Z,7.36
2022-11-28T18:07:15.860Z,7.36
2022-11-28T18:12:17.503Z,7.35
2022-11-28T18:17:19.092Z,7.34
2022-11-28T18:22:20.699Z,7.34
2022-11-28T18:27:22.707Z,7.34
2022-11-28T18:32:24.548Z,7.33
2022-11-28T18:37:26.225Z,7.32
2022-11-28T18:42:27.808Z,7.31
2022-11-28T18:47:29.479Z,7.32
2022-11-28T18:52:32.971Z,7.31
2022-11-28T18:57:35.075Z,7.28
2022-11-28T19:02:36.767Z,7.27
2022-11-28T19:07:38.380Z,7.26
2022-11-28T19:12:41.075Z,7.25
2022-11-28T19:17:42.687Z,7.23
2022-11-28T19:22:44.283Z,7.22
2022-11-28T19:27:45.970Z,7.23
2022-11-28T19:32:47.974Z,7.22
2022-11-28T19:37:51.388Z,7.23
2022-11-28T19:42:52.986Z,7.22
2022-11-28T19:47:54.538Z,7.23
2022-11-28T19:52:56.232Z,7.22
2022-11-28T19:57:57.883Z,7.22
2022-11-28T20:02:59.542Z,7.21
2022-11-28T20:08:01.422Z,7.20
2022-11-28T20:13:03.332Z,7.20
2022-11-28T20:18:04.922Z,7.19
2022-11-28T20:23:06.771Z,7.18
2022-11-28T20:28:08.448Z,7.15
2022-11-28T20:33:10.043Z,7.16
2022-11-28T20:38:12.374Z,7.13
2022-11-28T20:43:13.948Z,7.14
2022-11-28T20:48:15.568Z,7.12
2022-11-28T20:53:19.892Z,7.13
2022-11-28T20:58:25.298Z,7.11
2022-11-28T21:03:27.079Z,7.10
2022-11-28T21:08:31.275Z,7.10
2022-11-28T21:13:33.146Z,7.09
2022-11-28T21:18:36.488Z,7.09
2022-11-28T21:23:38.698Z,7.07
2022-11-28T21:28:42.186Z,7.08
2022-11-28T21:33:48.059Z,7.08
2022-11-28T21:38:54.417Z,7.05
2022-11-28T21:43:56.703Z,7.03
2022-11-28T21:48:58.686Z,7.02
2022-11-28T21:54:00.264Z,7.01
2022-11-28T21:59:01.937Z,7.00
2022-11-28T22:04:04.510Z,6.98
2022-11-28T22:09:09.393Z,6.98
2022-11-28T22:14:12.234Z,6.97
2022-11-28T22:19:14.066Z,6.97
2022-11-28T22:24:17.723Z,6.98
2022-11-28T22:29:19.329Z,6.98
2022-11-28T22:34:21.093Z,6.98
2022-11-28T22:39:22.913Z,6.97
2022-11-28T22:44:24.488Z,6.97
2022-11-28T22:49:27.380Z,6.97
2022-11-28T22:54:28.966Z,6.95
2022-11-28T22:59:33.633Z,6.96
2022-11-28T23:04:35.380Z,6.95
2022-11-28T23:09:38.061Z,6.98
2022-11-28T23:14:42.330Z,6.99
2022-11-28T23:19:44.406Z,6.97
2022-11-28T23:24:46.114Z,6.97
2022-11-28T23:29:47.997Z,6.96
2022-11-28T23:34:49.587Z,6.95
2022-11-28T23:39:51.253Z,6.93
2022-11-28T23:44:52.901Z,6.91
2022-11-28T23:49:54.481Z,6.93
2022-11-28T23:54:56.150Z,6.92
